Ana Sayfa
METAR-TAF:

METAR-TAF

Havaalanları :

Monroe, Kuzey Carolina, Amerika Birleşik Devletleri

Enlem: 35-01-01N, Boylam: 080-37-14W, yükseklik: 207 m

Güncel hava durumu gözlemi

Rapor saat 12:53 UTC de 22 dakika önce yapıldı.
Rüzgar batı/güneybatıdan 6 kt
Sıcaklık 18°C
Nem 88%
Basınç 1017 hPa
Görüş mesafesi: 16.1 km
Açık gökyüzü

METAR: KEQY 281253Z AUTO 24006KT 10SM CLR 18/16 A3004 RMK AO2 SLP178 T01780161

Saat: 09:15 (13:15 UTC)


TAF: eksik

4.000'den fazla havaalanı için hava durumu gözlemleri ve tahminleri (METAR ve TAF raporları).

Kullanılabilir istasyonlar harita üzerinde sarı ve kırmızı noktalarla gösterilir.

İstasyonun adını görmek için fareyi noktanın üzerinde gezdirin.

Sonrasında hava gözlem ve tahminlerini görmek için tıklayın.

Haritayı değiştirmek için: yaklaştırmak için siyah artı işaretli yeşil düğmeye ve uzaklaştırmak için de eksi işaretli düğmeye hızla tıklayın; bitişik haritalar için yeşil okları kullanın.


METAR-TAF: